CYZH

Slave Lake Airport

Slave Lake, Alberta, Canada
METAR CYZH 222100Z AUTO 28016G25KT 9SM BKN055 07/M01 A3011 RMK SLP221
Observed Flight Rules
Apr-22 @ 21:00 UTC (49 minutes ago) Visual Flight Rules
Wind Visibility Clouds
280° at 16 knots
 Gusting to 25 knots
9 miles
  • Broken at 5,500' AGL
Temperatures Readings
Current 7°C / 45°F
Dewpoint -1°C / 30°F
Humidity 57%
Altimeter 30.11" Hg
Pressure 1022.1 hPa
Elevation 581
METAR CYZH 222100Z AUTO 28016G25KT 9SM BKN055 07/M01 A3011 RMK SLP221
Observed Flight Rules
Apr-22 @ 21:00 UTC
(49 minutes ago)
VFR
Wind Visibility
280° at 16 knots
 Gusting to 25 knots
9 miles
Clouds
  • Broken at 5,500' AGL
Temperature Dewpoint
7°C / 45°F -1°C / 30°F
Humidity Altimeter Pressure
57% 30.11" Hg 1022.1 hPa